createdAt,value
2022-11-22T00:00:35.028Z,-1.07
2022-11-22T00:03:01.714Z,-1.23
2022-11-22T00:05:28.329Z,-1.00
2022-11-22T00:07:54.952Z,-1.00
2022-11-22T00:10:21.563Z,-0.95
2022-11-22T00:12:49.324Z,-1.15
2022-11-22T00:15:16.056Z,-1.27
2022-11-22T00:17:42.717Z,-1.42
2022-11-22T00:20:11.814Z,-1.30
2022-11-22T00:22:43.990Z,-1.41
2022-11-22T00:25:11.318Z,-1.24
2022-11-22T00:27:37.942Z,-1.34
2022-11-22T00:30:05.847Z,-1.18
2022-11-22T00:32:32.452Z,-1.37
2022-11-22T00:34:59.223Z,-1.19
2022-11-22T00:37:25.863Z,-1.41
2022-11-22T00:39:52.543Z,-1.34
2022-11-22T00:42:19.193Z,-1.40
2022-11-22T00:44:45.776Z,-1.21
2022-11-22T00:47:12.403Z,-1.36
2022-11-22T00:49:38.964Z,-1.13
2022-11-22T00:52:05.691Z,-1.33
2022-11-22T00:54:32.246Z,-1.35
2022-11-22T00:56:58.938Z,-1.28
2022-11-22T00:59:25.518Z,-1.29
2022-11-22T01:01:52.319Z,-1.55
2022-11-22T01:04:18.953Z,-1.51
2022-11-22T01:06:45.629Z,-1.27
2022-11-22T01:09:18.122Z,-1.26
2022-11-22T01:11:44.768Z,-1.39
2022-11-22T01:14:11.680Z,-1.32
2022-11-22T01:16:38.615Z,-1.65
2022-11-22T01:19:05.205Z,-1.33
2022-11-22T01:21:31.805Z,-1.35
2022-11-22T01:23:58.453Z,-1.60
2022-11-22T01:26:25.044Z,-1.48
2022-11-22T01:28:51.600Z,-1.70
2022-11-22T01:31:18.266Z,-1.48
2022-11-22T01:33:45.220Z,-1.32
2022-11-22T01:36:11.866Z,-1.23
2022-11-22T01:38:38.502Z,-1.41
2022-11-22T01:41:05.093Z,-1.54
2022-11-22T01:43:31.769Z,-1.54
2022-11-22T01:46:02.603Z,-1.17
2022-11-22T01:48:38.366Z,-1.33
2022-11-22T01:51:32.751Z,-1.28
2022-11-22T01:54:06.476Z,-1.30
2022-11-22T01:56:35.689Z,-1.12
2022-11-22T01:59:07.993Z,-1.15
2022-11-22T02:01:35.602Z,-0.95
2022-11-22T02:04:05.127Z,-0.98
2022-11-22T02:06:42.165Z,-1.03
2022-11-22T02:09:12.935Z,-1.07
2022-11-22T02:11:47.787Z,-1.06
2022-11-22T02:14:16.739Z,-1.21
2022-11-22T02:16:44.132Z,-1.48
2022-11-22T02:19:19.667Z,-1.50
2022-11-22T02:21:51.760Z,-1.27
2022-11-22T02:24:28.640Z,-1.47
2022-11-22T02:26:55.218Z,-1.44
2022-11-22T02:29:22.280Z,-1.61
2022-11-22T02:31:48.854Z,-1.33
2022-11-22T02:34:15.492Z,-1.56
2022-11-22T02:36:53.574Z,-1.73
2022-11-22T02:39:25.357Z,-1.80
2022-11-22T02:41:53.503Z,-1.64
2022-11-22T02:44:21.291Z,-1.63
2022-11-22T02:46:53.775Z,-1.61
2022-11-22T02:49:23.291Z,-1.91
2022-11-22T02:51:51.214Z,-1.67
2022-11-22T02:54:18.286Z,-1.63
2022-11-22T02:56:45.617Z,-1.43
2022-11-22T02:59:12.425Z,-1.54
2022-11-22T03:01:39.540Z,-1.70
2022-11-22T03:04:06.349Z,-1.71
2022-11-22T03:06:32.959Z,-1.85
2022-11-22T03:08:59.518Z,-1.95
2022-11-22T03:11:26.191Z,-2.10
2022-11-22T03:13:52.761Z,-2.08
2022-11-22T03:16:19.386Z,-2.03
2022-11-22T03:18:46.192Z,-1.81
2022-11-22T03:21:12.815Z,-1.91
2022-11-22T03:23:39.390Z,-1.84
2022-11-22T03:26:11.002Z,-1.73
2022-11-22T03:28:37.865Z,-1.66
2022-11-22T03:31:08.394Z,-1.59
2022-11-22T03:33:35.758Z,-1.62
2022-11-22T03:36:03.226Z,-1.58
2022-11-22T03:38:29.968Z,-1.63
2022-11-22T03:40:56.581Z,-1.48
2022-11-22T03:43:23.638Z,-1.47
2022-11-22T03:45:50.201Z,-1.56
2022-11-22T03:48:16.763Z,-1.34
2022-11-22T03:50:43.606Z,-1.16
2022-11-22T03:53:10.574Z,-1.16
2022-11-22T03:55:37.582Z,-1.27
2022-11-22T03:58:04.384Z,-1.39
2022-11-22T04:00:32.091Z,-1.34
2022-11-22T04:02:58.682Z,-1.25
2022-11-22T04:05:25.364Z,-1.33
2022-11-22T04:07:56.120Z,-1.41
2022-11-22T04:10:26.622Z,-1.43
2022-11-22T04:12:58.235Z,-1.14
2022-11-22T04:15:26.047Z,-1.38
2022-11-22T04:17:52.997Z,-1.32
2022-11-22T04:20:46.718Z,-1.13
2022-11-22T04:23:19.090Z,-1.11
2022-11-22T04:25:51.852Z,-1.25
2022-11-22T04:28:40.482Z,-1.11
2022-11-22T04:31:29.149Z,-1.11
2022-11-22T04:33:55.758Z,-1.06
2022-11-22T04:36:22.367Z,-1.34
2022-11-22T04:38:48.915Z,-0.89
2022-11-22T04:41:15.498Z,-1.02
2022-11-22T04:44:00.606Z,-0.86
2022-11-22T04:46:27.192Z,-0.82
2022-11-22T04:48:53.763Z,-0.86
2022-11-22T04:51:38.936Z,-1.22
2022-11-22T04:54:05.583Z,-0.85
2022-11-22T04:56:32.155Z,-1.20
2022-11-22T04:58:58.758Z,-0.90
2022-11-22T05:01:25.364Z,-0.92
2022-11-22T05:03:51.985Z,-0.91
2022-11-22T05:06:18.680Z,-1.07
2022-11-22T05:08:45.321Z,-1.04
2022-11-22T05:11:12.071Z,-0.96
2022-11-22T05:13:40.960Z,-0.92
2022-11-22T05:16:10.684Z,-0.90
2022-11-22T05:18:37.529Z,-0.87
2022-11-22T05:21:09.800Z,-0.88
2022-11-22T05:23:55.171Z,-1.01
2022-11-22T05:26:23.932Z,-1.14
2022-11-22T05:28:51.092Z,-1.02
2022-11-22T05:31:27.901Z,-1.14
2022-11-22T05:33:56.561Z,-0.88
2022-11-22T05:36:23.740Z,-0.78
2022-11-22T05:38:51.179Z,-0.78
2022-11-22T05:41:18.232Z,-0.94
2022-11-22T05:43:44.906Z,-0.88
2022-11-22T05:46:19.589Z,-0.74
2022-11-22T05:48:50.404Z,-1.15
2022-11-22T05:51:19.203Z,-0.79
2022-11-22T05:53:46.267Z,-0.77
2022-11-22T05:56:24.048Z,-0.86
2022-11-22T05:58:51.463Z,-1.02
2022-11-22T06:01:20.745Z,-0.81
2022-11-22T06:03:48.520Z,-0.83
2022-11-22T06:06:15.977Z,-0.75
2022-11-22T06:08:48.621Z,-0.78
2022-11-22T06:11:18.531Z,-0.75
2022-11-22T06:13:46.804Z,-0.90
2022-11-22T06:16:14.555Z,-0.65
2022-11-22T06:18:41.528Z,-0.28
2022-11-22T06:21:12.112Z,-0.31
2022-11-22T06:23:38.762Z,-0.22
2022-11-22T06:26:07.903Z,-0.12
2022-11-22T06:28:36.296Z,-0.20
2022-11-22T06:31:04.308Z,-0.18
2022-11-22T06:33:31.326Z,-0.30
2022-11-22T06:36:15.780Z,-0.37
2022-11-22T06:38:43.622Z,-0.40
2022-11-22T06:41:12.772Z,-0.43
2022-11-22T06:43:45.293Z,-0.62
2022-11-22T06:46:15.692Z,-0.58
2022-11-22T06:48:43.232Z,-0.48
2022-11-22T06:51:16.864Z,-0.57
2022-11-22T06:53:48.492Z,-0.63
2022-11-22T06:56:20.576Z,-0.64
2022-11-22T06:58:48.915Z,-0.36
2022-11-22T07:01:27.738Z,-0.37
2022-11-22T07:03:59.145Z,-0.39
2022-11-22T07:06:28.845Z,-0.33
2022-11-22T07:08:55.902Z,-0.69
2022-11-22T07:11:28.107Z,-0.77
2022-11-22T07:14:01.702Z,-0.51
2022-11-22T07:16:32.452Z,-0.60
2022-11-22T07:19:00.582Z,-0.73
2022-11-22T07:21:27.432Z,-0.57
2022-11-22T07:23:55.628Z,-0.83
2022-11-22T07:26:24.498Z,-0.52
2022-11-22T07:28:51.680Z,-0.62
2022-11-22T07:31:18.781Z,-0.65
2022-11-22T07:33:46.973Z,-0.64
2022-11-22T07:36:16.302Z,-0.45
2022-11-22T07:38:43.102Z,-0.55
2022-11-22T07:41:10.227Z,-0.53
2022-11-22T07:43:37.122Z,-0.43
2022-11-22T07:46:06.469Z,-0.40
2022-11-22T07:48:33.074Z,-0.41
2022-11-22T07:51:07.050Z,-0.45
2022-11-22T07:53:35.029Z,-0.31
2022-11-22T07:56:03.215Z,-0.37
2022-11-22T07:58:30.150Z,-0.39
2022-11-22T08:00:56.905Z,-0.47
2022-11-22T08:03:28.673Z,-0.31
2022-11-22T08:06:04.046Z,-0.32
2022-11-22T08:08:31.413Z,-0.54
2022-11-22T08:10:58.313Z,-0.31
2022-11-22T08:13:25.285Z,-0.15
2022-11-22T08:15:54.672Z,-0.36
2022-11-22T08:18:22.375Z,-0.38
2022-11-22T08:20:49.055Z,-0.57
2022-11-22T08:23:15.644Z,-0.67
2022-11-22T08:25:42.253Z,-0.52
2022-11-22T08:28:08.845Z,-0.64
2022-11-22T08:30:35.444Z,-0.47
2022-11-22T08:33:02.023Z,-0.55
2022-11-22T08:35:29.071Z,-0.45
2022-11-22T08:37:58.760Z,-0.55
2022-11-22T08:40:25.410Z,-0.31
2022-11-22T08:42:54.533Z,-0.35
2022-11-22T08:45:21.115Z,-0.28
2022-11-22T08:47:48.993Z,-0.45
2022-11-22T08:50:17.160Z,-0.16
2022-11-22T08:52:43.758Z,-0.28
2022-11-22T08:55:10.334Z,-0.22
2022-11-22T08:57:36.932Z,-0.08
2022-11-22T09:00:05.897Z,-0.15
2022-11-22T09:02:32.478Z,-0.05
2022-11-22T09:04:59.256Z,-0.18
2022-11-22T09:10:12.628Z,0.16
2022-11-22T09:12:43.642Z,0.08
2022-11-22T09:15:10.729Z,-0.01
2022-11-22T09:17:37.470Z,0.15
2022-11-22T09:20:04.763Z,0.24
2022-11-22T09:22:32.168Z,0.21
2022-11-22T09:24:58.703Z,0.18
2022-11-22T09:27:25.295Z,0.37
2022-11-22T09:29:51.928Z,0.10
2022-11-22T09:32:18.595Z,0.34
2022-11-22T09:34:45.149Z,0.45
2022-11-22T09:37:11.764Z,0.27
2022-11-22T09:39:38.643Z,0.40
2022-11-22T09:42:44.685Z,0.29
2022-11-22T09:45:38.765Z,0.46
2022-11-22T09:48:11.289Z,0.49
2022-11-22T09:51:06.790Z,0.12
2022-11-22T09:53:40.671Z,0.43
2022-11-22T09:56:16.599Z,0.38
2022-11-22T09:58:47.677Z,0.41
2022-11-22T10:01:27.663Z,0.39
2022-11-22T10:04:10.239Z,0.41
2022-11-22T10:06:41.147Z,0.39
2022-11-22T10:09:45.068Z,0.48
2022-11-22T10:12:17.156Z,0.61
2022-11-22T10:15:07.104Z,0.56
2022-11-22T10:17:56.496Z,0.67
2022-11-22T10:20:26.194Z,0.32
2022-11-22T10:22:53.456Z,0.55
2022-11-22T10:25:35.722Z,0.62
2022-11-22T10:28:38.427Z,0.75
2022-11-22T10:31:14.620Z,0.83
2022-11-22T10:34:15.647Z,0.67
2022-11-22T10:36:50.107Z,0.70
2022-11-22T10:39:40.023Z,0.77
2022-11-22T10:42:26.860Z,0.89
2022-11-22T10:44:53.371Z,0.92
2022-11-22T10:47:19.932Z,0.91
2022-11-22T10:49:52.689Z,1.03
2022-11-22T10:52:40.771Z,1.17
2022-11-22T10:55:19.540Z,1.07
2022-11-22T10:58:13.546Z,1.15
2022-11-22T11:00:46.855Z,1.14
2022-11-22T11:03:32.442Z,1.06
2022-11-22T11:06:38.099Z,1.20
2022-11-22T11:12:05.132Z,1.13
2022-11-22T11:14:37.897Z,1.14
2022-11-22T11:17:06.140Z,1.14
2022-11-22T11:19:41.740Z,1.13
2022-11-22T11:22:08.253Z,1.10
2022-11-22T11:24:38.453Z,1.01
2022-11-22T11:27:06.027Z,1.14
2022-11-22T11:29:41.574Z,1.27
2022-11-22T11:32:21.914Z,1.74
2022-11-22T11:35:03.864Z,1.67
2022-11-22T11:37:38.756Z,1.67
2022-11-22T11:40:24.837Z,1.62
2022-11-22T11:43:21.275Z,1.55
2022-11-22T11:45:48.050Z,1.50
2022-11-22T11:48:41.251Z,1.49
2022-11-22T11:51:11.660Z,1.35
2022-11-22T11:53:39.964Z,1.32
2022-11-22T11:56:19.768Z,1.75
2022-11-22T11:58:54.959Z,1.72
2022-11-22T12:01:23.050Z,1.77
2022-11-22T12:03:57.799Z,1.70
2022-11-22T12:06:32.519Z,1.69
2022-11-22T12:09:00.861Z,1.65
2022-11-22T12:11:38.703Z,1.53
2022-11-22T12:14:30.401Z,1.79
2022-11-22T12:17:05.744Z,1.64
2022-11-22T12:20:11.969Z,2.04
2022-11-22T12:23:13.055Z,2.10
2022-11-22T12:25:40.547Z,1.85
2022-11-22T12:28:28.797Z,2.13
2022-11-22T12:30:55.337Z,2.09
2022-11-22T12:33:34.960Z,1.76
2022-11-22T12:36:04.824Z,2.22
2022-11-22T12:38:40.959Z,2.03
2022-11-22T12:41:13.422Z,1.76
2022-11-22T12:43:46.413Z,1.98
2022-11-22T12:46:28.750Z,1.75
2022-11-22T12:49:05.211Z,2.05
2022-11-22T12:51:43.233Z,1.72
2022-11-22T12:54:16.218Z,1.81
2022-11-22T12:56:49.093Z,1.78
2022-11-22T12:59:25.181Z,1.77
2022-11-22T13:02:10.232Z,2.25
2022-11-22T13:05:09.826Z,2.03
2022-11-22T13:07:36.457Z,2.29
2022-11-22T13:10:11.867Z,2.35
2022-11-22T13:12:41.285Z,2.25
2022-11-22T13:15:13.479Z,2.16
2022-11-22T13:17:40.514Z,2.13
2022-11-22T13:20:14.755Z,2.13
2022-11-22T13:23:19.276Z,2.12
2022-11-22T13:26:19.475Z,2.21
2022-11-22T13:28:47.984Z,2.13
2022-11-22T13:31:18.451Z,2.19
2022-11-22T13:33:57.559Z,2.21
2022-11-22T13:36:27.065Z,2.17
2022-11-22T13:38:59.757Z,1.72
2022-11-22T13:41:36.508Z,2.14
2022-11-22T13:44:21.930Z,2.19
2022-11-22T13:47:12.517Z,2.11
2022-11-22T13:49:48.846Z,2.05
2022-11-22T13:52:15.812Z,2.16
2022-11-22T13:54:48.193Z,2.24
2022-11-22T13:57:31.686Z,2.01
2022-11-22T14:00:16.802Z,2.20
2022-11-22T14:02:52.103Z,2.19
2022-11-22T14:05:41.963Z,2.02
2022-11-22T14:08:28.531Z,2.15
2022-11-22T14:10:55.150Z,2.44
2022-11-22T14:13:30.782Z,2.42
2022-11-22T14:16:25.155Z,2.41
2022-11-22T14:19:11.153Z,2.28
2022-11-22T14:22:16.316Z,2.49
2022-11-22T14:25:13.879Z,2.57
2022-11-22T14:27:56.911Z,2.61
2022-11-22T14:30:39.422Z,2.43
2022-11-22T14:33:21.394Z,2.36
2022-11-22T14:36:06.346Z,2.30
2022-11-22T14:38:35.561Z,2.21
2022-11-22T14:41:41.003Z,2.27
2022-11-22T14:44:16.615Z,2.07
2022-11-22T14:46:53.827Z,2.24
2022-11-22T14:49:44.003Z,2.34
2022-11-22T14:52:24.580Z,2.15
2022-11-22T14:55:06.052Z,2.26
2022-11-22T14:57:36.483Z,2.22
2022-11-22T15:00:08.759Z,2.31
2022-11-22T15:02:57.228Z,2.32
2022-11-22T15:09:13.289Z,2.34
2022-11-22T15:09:13.539Z,2.37
2022-11-22T15:11:41.884Z,2.37
2022-11-22T15:14:27.030Z,2.38
2022-11-22T15:59:43.718Z,2.71
2022-11-22T16:02:16.017Z,2.72
2022-11-22T16:06:09.702Z,2.49
2022-11-22T16:07:49.044Z,2.66
2022-11-22T16:10:20.434Z,2.78
2022-11-22T16:12:47.370Z,2.68
2022-11-22T16:15:26.061Z,2.74
2022-11-22T16:17:59.703Z,2.73
2022-11-22T16:20:32.043Z,2.71
2022-11-22T16:23:11.787Z,2.58
2022-11-22T16:25:40.891Z,2.63
2022-11-22T16:28:37.768Z,2.54
2022-11-22T16:31:16.773Z,2.37
2022-11-22T16:33:44.534Z,2.55
2022-11-22T16:36:14.158Z,2.53
2022-11-22T16:38:41.923Z,2.51
2022-11-22T16:41:13.598Z,2.38
2022-11-22T16:43:40.231Z,2.34
2022-11-22T16:46:06.980Z,2.62
2022-11-22T16:48:33.973Z,2.55
2022-11-22T16:51:06.987Z,2.44
2022-11-22T16:53:47.958Z,2.50
2022-11-22T16:56:20.355Z,2.48
2022-11-22T16:58:51.425Z,2.45
2022-11-22T17:01:21.631Z,2.44
2022-11-22T17:03:50.684Z,2.37
2022-11-22T17:06:20.353Z,2.45
2022-11-22T17:08:48.537Z,2.39
2022-11-22T17:11:17.215Z,2.42
2022-11-22T17:13:43.978Z,2.32
2022-11-22T17:16:11.806Z,2.26
2022-11-22T17:18:39.394Z,2.25
2022-11-22T17:21:20.864Z,2.51
2022-11-22T17:23:48.357Z,2.44
2022-11-22T17:26:15.186Z,2.44
2022-11-22T17:28:41.815Z,2.52
2022-11-22T17:31:16.864Z,2.43
2022-11-22T17:33:43.962Z,2.31
2022-11-22T17:36:24.277Z,2.49
2022-11-22T17:38:50.997Z,2.47
2022-11-22T17:41:17.673Z,2.46
2022-11-22T17:43:44.495Z,2.57
2022-11-22T17:46:11.702Z,2.61
2022-11-22T17:48:38.628Z,2.42
2022-11-22T17:51:09.782Z,2.63
2022-11-22T17:53:36.408Z,2.63
2022-11-22T17:56:10.577Z,2.61
2022-11-22T17:58:38.551Z,2.52
2022-11-22T18:01:14.035Z,2.62
2022-11-22T18:03:41.811Z,2.43
2022-11-22T18:06:10.367Z,2.59
2022-11-22T18:08:38.804Z,2.54
2022-11-22T18:11:07.732Z,2.53
2022-11-22T18:13:37.459Z,2.49
2022-11-22T18:16:07.760Z,2.45
2022-11-22T18:21:24.460Z,2.19
2022-11-22T18:23:52.367Z,2.34
2022-11-22T18:31:54.679Z,2.31
2022-11-22T18:34:22.642Z,2.26
2022-11-22T18:36:55.269Z,2.42
2022-11-22T18:39:23.028Z,2.44
2022-11-22T18:41:49.687Z,2.25
2022-11-22T18:44:16.469Z,2.23
2022-11-22T18:46:43.607Z,2.33
2022-11-22T18:49:10.490Z,2.19
2022-11-22T18:51:37.498Z,2.19
2022-11-22T18:54:06.328Z,2.27
2022-11-22T18:56:37.835Z,2.33
2022-11-22T18:59:06.322Z,2.33
2022-11-22T19:01:34.659Z,2.33
2022-11-22T19:04:02.952Z,2.32
2022-11-22T19:06:30.184Z,2.27
2022-11-22T19:08:57.713Z,2.30
2022-11-22T19:11:24.825Z,2.02
2022-11-22T19:13:51.697Z,2.28
2022-11-22T19:16:22.438Z,2.30
2022-11-22T19:18:49.902Z,2.10
2022-11-22T19:21:21.873Z,2.29
2022-11-22T19:23:52.508Z,2.35
2022-11-22T19:26:21.976Z,2.07
2022-11-22T19:28:49.698Z,2.28
2022-11-22T19:31:21.236Z,2.24
2022-11-22T19:33:48.487Z,2.24
2022-11-22T19:36:20.958Z,2.22
2022-11-22T19:38:48.424Z,1.92
2022-11-22T19:41:20.431Z,2.17
2022-11-22T19:43:48.035Z,2.14
2022-11-22T19:46:15.384Z,2.16
2022-11-22T19:48:46.918Z,2.00
2022-11-22T19:51:15.338Z,1.99
2022-11-22T19:53:42.735Z,2.09
2022-11-22T19:56:13.958Z,2.10
2022-11-22T19:58:40.717Z,1.88
2022-11-22T20:01:09.333Z,2.07
2022-11-22T20:03:40.538Z,1.95
2022-11-22T20:06:09.239Z,2.16
2022-11-22T20:08:36.360Z,2.18
2022-11-22T20:11:08.988Z,2.19
2022-11-22T20:13:37.829Z,2.18
2022-11-22T20:16:10.276Z,2.08
2022-11-22T20:18:37.943Z,1.93
2022-11-22T20:21:06.508Z,2.13
2022-11-22T20:23:36.094Z,2.12
2022-11-22T20:26:10.034Z,1.99
2022-11-22T20:28:38.157Z,2.13
2022-11-22T20:31:18.465Z,2.12
2022-11-22T20:33:48.167Z,2.13
2022-11-22T20:36:17.841Z,2.08
2022-11-22T20:38:45.987Z,2.10
2022-11-22T20:41:13.771Z,1.94
2022-11-22T20:43:41.083Z,2.15
2022-11-22T20:46:14.037Z,2.11
2022-11-22T20:48:42.479Z,2.14
2022-11-22T20:51:18.731Z,2.16
2022-11-22T20:53:45.972Z,1.96
2022-11-22T20:56:14.038Z,2.13
2022-11-22T20:58:41.452Z,2.13
2022-11-22T21:01:19.259Z,2.15
2022-11-22T21:03:46.760Z,1.94
2022-11-22T21:06:14.076Z,2.15
2022-11-22T21:08:41.480Z,2.34
2022-11-22T21:11:18.562Z,2.34
2022-11-22T21:13:45.778Z,2.14
2022-11-22T21:16:24.234Z,2.30
2022-11-22T21:19:04.779Z,2.33
2022-11-22T21:21:33.259Z,2.19
2022-11-22T21:24:01.828Z,2.34
2022-11-22T21:26:29.517Z,2.21
2022-11-22T21:28:56.485Z,2.08
2022-11-22T21:31:24.080Z,2.31
2022-11-22T21:33:52.008Z,2.48
2022-11-22T21:36:19.864Z,2.44
2022-11-22T21:38:46.848Z,2.36
2022-11-22T21:41:39.480Z,2.45
2022-11-22T21:44:03.452Z,2.28
2022-11-22T21:46:30.451Z,2.27
2022-11-22T21:48:57.149Z,2.14
2022-11-22T21:51:26.325Z,2.12
2022-11-22T21:54:01.279Z,2.09
2022-11-22T21:56:28.515Z,2.11
2022-11-22T21:58:55.289Z,2.13
2022-11-22T22:01:22.767Z,2.35
2022-11-22T22:03:49.968Z,2.12
2022-11-22T22:06:16.797Z,2.33
2022-11-22T22:08:43.417Z,2.20
2022-11-22T22:11:10.127Z,2.28
2022-11-22T22:13:36.958Z,2.08
2022-11-22T22:16:12.765Z,2.22
2022-11-22T22:18:39.793Z,1.99
2022-11-22T22:21:08.272Z,2.25
2022-11-22T22:23:36.559Z,2.31
2022-11-22T22:26:08.206Z,2.18
2022-11-22T22:28:36.585Z,2.36
2022-11-22T22:31:06.182Z,2.32
2022-11-22T22:33:33.883Z,2.35
2022-11-22T22:36:00.863Z,2.28
2022-11-22T22:38:30.010Z,2.23
2022-11-22T22:40:58.982Z,2.34
2022-11-22T22:43:30.347Z,2.35
2022-11-22T22:46:08.363Z,2.38
2022-11-22T22:48:35.011Z,2.26
2022-11-22T22:51:10.508Z,2.36
2022-11-22T22:53:37.326Z,2.27
2022-11-22T22:56:05.250Z,2.20
2022-11-22T22:58:31.869Z,2.25
2022-11-22T23:01:26.270Z,2.36
2022-11-22T23:04:00.960Z,2.15
2022-11-22T23:06:35.295Z,2.18
2022-11-22T23:09:04.678Z,2.10
2022-11-22T23:11:51.075Z,2.36
2022-11-22T23:14:26.309Z,2.31
2022-11-22T23:16:57.335Z,2.21
2022-11-22T23:19:25.454Z,2.31
2022-11-22T23:21:52.081Z,2.23
2022-11-22T23:24:18.736Z,2.31
2022-11-22T23:26:45.353Z,2.07
2022-11-22T23:29:12.414Z,2.12
2022-11-22T23:31:39.140Z,2.06
2022-11-22T23:34:05.857Z,2.15
2022-11-22T23:36:36.039Z,2.12
2022-11-22T23:39:04.275Z,2.37
2022-11-22T23:41:30.923Z,2.13
2022-11-22T23:43:57.534Z,2.29
2022-11-22T23:46:27.412Z,2.24
2022-11-22T23:48:58.929Z,2.24
2022-11-22T23:51:27.788Z,2.30
2022-11-22T23:54:00.078Z,2.27
2022-11-22T23:56:28.121Z,2.26
2022-11-22T23:58:54.833Z,1.98
